createdAt,value
2017-07-28T00:01:27.299Z,17.70
2017-07-28T00:03:53.329Z,17.70
2017-07-28T00:06:19.342Z,17.70
2017-07-28T00:08:45.377Z,17.80
2017-07-28T00:11:11.400Z,17.70
2017-07-28T00:13:37.438Z,17.70
2017-07-28T00:16:04.190Z,17.40
2017-07-28T00:18:30.255Z,17.40
2017-07-28T00:20:57.013Z,17.20
2017-07-28T00:23:23.033Z,17.20
2017-07-28T00:25:49.079Z,17.10
2017-07-28T00:28:15.225Z,17.00
2017-07-28T00:30:41.269Z,17.00
2017-07-28T00:33:07.302Z,17.00
2017-07-28T00:35:33.341Z,17.00
2017-07-28T00:37:59.369Z,16.90
2017-07-28T00:40:25.389Z,16.90
2017-07-28T00:42:51.423Z,16.90
2017-07-28T00:45:17.467Z,16.90
2017-07-28T00:47:43.497Z,16.90
2017-07-28T00:50:09.502Z,16.70
2017-07-28T00:52:35.546Z,16.70
2017-07-28T00:55:01.574Z,16.60
2017-07-28T00:57:27.619Z,16.40
2017-07-28T00:59:54.388Z,16.30
2017-07-28T01:02:20.434Z,16.30
2017-07-28T01:04:46.449Z,16.40
2017-07-28T01:07:12.467Z,16.30
2017-07-28T01:09:38.490Z,16.20
2017-07-28T01:12:05.246Z,16.10
2017-07-28T01:14:31.278Z,16.10
2017-07-28T01:16:57.314Z,16.10
2017-07-28T01:19:23.338Z,16.00
2017-07-28T01:21:50.097Z,15.90
2017-07-28T01:24:16.109Z,15.80
2017-07-28T01:26:42.139Z,15.80
2017-07-28T01:29:08.174Z,15.80
2017-07-28T01:31:34.194Z,15.70
2017-07-28T01:34:00.987Z,15.70
2017-07-28T01:36:27.021Z,15.70
2017-07-28T01:39:08.030Z,15.70
2017-07-28T01:41:34.058Z,15.70
2017-07-28T01:44:00.091Z,15.70
2017-07-28T01:46:26.858Z,15.90
2017-07-28T01:48:52.925Z,15.80
2017-07-28T01:51:18.951Z,15.90
2017-07-28T01:53:45.714Z,15.80
2017-07-28T01:56:11.733Z,15.80
2017-07-28T01:58:37.763Z,15.90
2017-07-28T02:01:03.786Z,15.90
2017-07-28T02:03:29.801Z,15.80
2017-07-28T02:05:56.572Z,15.70
2017-07-28T02:08:22.589Z,15.70
2017-07-28T02:10:48.629Z,15.70
2017-07-28T02:13:14.641Z,15.60
2017-07-28T02:15:40.662Z,15.60
2017-07-28T02:18:06.729Z,15.50
2017-07-28T02:20:32.742Z,15.50
2017-07-28T02:22:58.779Z,15.40
2017-07-28T02:25:25.547Z,15.30
2017-07-28T02:27:51.586Z,15.40
2017-07-28T02:30:17.623Z,15.40
2017-07-28T02:32:44.386Z,15.40
2017-07-28T02:35:10.415Z,15.40
2017-07-28T02:37:36.450Z,15.30
2017-07-28T02:40:02.477Z,15.30
2017-07-28T02:42:29.246Z,15.20
2017-07-28T02:44:55.287Z,15.20
2017-07-28T02:47:21.301Z,15.20
2017-07-28T02:49:48.085Z,15.00
2017-07-28T02:52:14.104Z,15.00
2017-07-28T02:54:40.126Z,15.00
2017-07-28T02:57:06.151Z,15.00
2017-07-28T02:59:32.192Z,15.00
2017-07-28T03:01:58.958Z,15.00
2017-07-28T03:04:25.001Z,15.00
2017-07-28T03:06:51.010Z,14.90
2017-07-28T03:09:17.023Z,14.90
2017-07-28T03:11:43.042Z,15.00
2017-07-28T03:14:09.055Z,14.90
2017-07-28T03:16:35.085Z,14.90
2017-07-28T03:19:01.098Z,14.90
2017-07-28T03:21:27.122Z,14.90
2017-07-28T03:23:53.194Z,14.90
2017-07-28T03:26:19.952Z,14.80
2017-07-28T03:28:45.961Z,14.80
2017-07-28T03:31:12.004Z,14.90
2017-07-28T03:33:38.016Z,14.90
2017-07-28T03:36:04.030Z,14.80
2017-07-28T03:38:30.058Z,14.80
2017-07-28T03:40:56.826Z,14.90
2017-07-28T03:43:22.863Z,14.90
2017-07-28T03:45:48.888Z,14.90
2017-07-28T03:48:14.910Z,14.90
2017-07-28T03:50:40.933Z,14.90
2017-07-28T03:53:06.949Z,14.90
2017-07-28T03:55:32.958Z,14.90
2017-07-28T03:57:58.983Z,14.90
2017-07-28T04:00:25.009Z,14.80
2017-07-28T04:02:51.053Z,14.80
2017-07-28T04:05:17.808Z,14.80
2017-07-28T04:07:43.830Z,14.80
2017-07-28T04:10:09.859Z,14.80
2017-07-28T04:12:35.896Z,14.90
2017-07-28T04:15:02.661Z,14.90
2017-07-28T04:17:28.669Z,14.90
2017-07-28T04:19:54.700Z,14.90
2017-07-28T04:22:20.714Z,14.90
2017-07-28T04:24:46.738Z,14.90
2017-07-28T04:27:12.763Z,14.90
2017-07-28T04:29:38.790Z,14.90
2017-07-28T04:32:04.810Z,15.00
2017-07-28T04:34:30.827Z,15.10
2017-07-28T04:36:56.841Z,15.10
2017-07-28T04:39:22.862Z,15.10
2017-07-28T04:41:48.886Z,15.30
2017-07-28T04:44:14.893Z,15.40
2017-07-28T04:46:40.922Z,15.50
2017-07-28T04:49:06.929Z,15.50
2017-07-28T04:51:32.942Z,15.60
2017-07-28T04:53:58.942Z,15.60
2017-07-28T04:56:24.961Z,15.70
2017-07-28T04:58:51.743Z,15.70
2017-07-28T05:01:17.779Z,15.70
2017-07-28T05:03:44.332Z,15.80
2017-07-28T05:06:10.557Z,15.70
2017-07-28T05:08:36.587Z,15.70
2017-07-28T05:11:02.646Z,15.70
2017-07-28T05:13:28.661Z,15.60
2017-07-28T05:15:54.685Z,15.60
2017-07-28T05:18:20.746Z,15.60
2017-07-28T05:20:46.798Z,15.60
2017-07-28T05:23:13.574Z,15.60
2017-07-28T05:25:39.611Z,15.60
2017-07-28T05:28:05.661Z,15.60
2017-07-28T05:30:31.689Z,15.70
2017-07-28T05:32:57.741Z,15.70
2017-07-28T05:35:24.518Z,15.80
2017-07-28T05:37:50.590Z,15.80
2017-07-28T05:40:16.622Z,15.80
2017-07-28T05:42:42.696Z,15.90
2017-07-28T05:45:09.480Z,16.00
2017-07-28T05:47:35.502Z,16.00
2017-07-28T05:50:01.546Z,16.10
2017-07-28T05:52:27.611Z,16.10
2017-07-28T05:54:53.660Z,16.20
2017-07-28T05:57:19.682Z,16.20
2017-07-28T05:59:45.726Z,16.30
2017-07-28T06:02:11.773Z,16.40
2017-07-28T06:04:37.806Z,16.50
2017-07-28T06:07:04.591Z,16.60
2017-07-28T06:09:30.617Z,16.60
2017-07-28T06:11:56.646Z,16.60
2017-07-28T06:14:23.410Z,16.70
2017-07-28T06:16:49.496Z,16.70
2017-07-28T06:19:15.544Z,16.70
2017-07-28T06:21:41.581Z,16.70
2017-07-28T06:24:07.614Z,16.70
2017-07-28T06:26:33.677Z,16.70
2017-07-28T06:28:59.792Z,16.80
2017-07-28T06:31:25.939Z,16.80
2017-07-28T06:33:59.679Z,16.70
2017-07-28T06:36:25.788Z,16.70
2017-07-28T06:38:51.851Z,16.80
2017-07-28T06:41:17.911Z,16.90
2017-07-28T06:43:43.998Z,17.00
2017-07-28T06:46:10.091Z,17.00
2017-07-28T06:48:36.153Z,17.00
2017-07-28T06:51:02.218Z,17.00
2017-07-28T06:53:28.279Z,17.10
2017-07-28T06:55:54.327Z,17.10
2017-07-28T06:58:20.391Z,17.20
2017-07-28T07:00:47.199Z,17.40
2017-07-28T07:03:13.261Z,17.40
2017-07-28T07:05:39.328Z,17.40
2017-07-28T07:08:05.390Z,17.40
2017-07-28T07:10:31.459Z,17.50
2017-07-28T07:12:58.268Z,17.70
2017-07-28T07:15:24.340Z,17.60
2017-07-28T07:17:50.387Z,17.60
2017-07-28T07:20:16.425Z,17.70
2017-07-28T07:22:42.479Z,17.70
2017-07-28T07:25:08.602Z,17.80
2017-07-28T07:27:35.803Z,17.90
2017-07-28T07:30:02.733Z,18.00
2017-07-28T07:32:28.782Z,18.00
2017-07-28T07:34:54.827Z,18.10
2017-07-28T07:37:20.856Z,18.20
2017-07-28T07:39:47.617Z,18.40
2017-07-28T07:42:13.638Z,18.40
2017-07-28T07:44:39.686Z,18.60
2017-07-28T07:47:05.711Z,18.60
2017-07-28T07:49:32.474Z,18.30
2017-07-28T07:51:58.503Z,18.30
2017-07-28T07:54:24.530Z,18.50
2017-07-28T07:56:50.549Z,18.50
2017-07-28T07:59:17.309Z,18.60
2017-07-28T08:01:43.371Z,18.60
2017-07-28T08:04:09.389Z,18.70
2017-07-28T08:06:35.415Z,18.90
2017-07-28T08:09:02.182Z,19.40
2017-07-28T08:11:28.205Z,19.30
2017-07-28T08:13:54.234Z,19.40
2017-07-28T08:16:20.250Z,19.10
2017-07-28T08:18:46.299Z,18.80
2017-07-28T08:21:12.342Z,18.80
2017-07-28T08:23:38.378Z,18.80
2017-07-28T08:26:05.153Z,18.90
2017-07-28T08:28:46.154Z,18.90
2017-07-28T08:31:12.939Z,19.20
2017-07-28T08:33:38.977Z,19.10
2017-07-28T08:36:05.013Z,19.20
2017-07-28T08:38:31.789Z,19.40
2017-07-28T08:40:57.819Z,19.40
2017-07-28T08:43:23.874Z,19.50
2017-07-28T08:45:49.910Z,19.70
2017-07-28T08:48:15.983Z,19.60
2017-07-28T08:50:42.042Z,19.60
2017-07-28T08:53:08.094Z,19.60
2017-07-28T08:55:34.889Z,19.60
2017-07-28T08:58:01.942Z,19.60
2017-07-28T09:00:29.385Z,19.60
2017-07-28T09:02:55.784Z,19.50
2017-07-28T09:05:21.847Z,19.70
2017-07-28T09:07:47.899Z,20.00
2017-07-28T09:10:14.974Z,20.40
2017-07-28T09:12:41.289Z,20.30
2017-07-28T09:15:07.394Z,20.00
2017-07-28T09:17:33.662Z,19.90
2017-07-28T09:20:00.167Z,20.00
2017-07-28T09:22:26.241Z,20.10
2017-07-28T09:24:52.284Z,20.30
2017-07-28T09:27:18.330Z,20.30
2017-07-28T09:29:45.121Z,20.30
2017-07-28T09:32:11.206Z,20.30
2017-07-28T09:34:37.253Z,20.20
2017-07-28T09:37:03.358Z,20.10
2017-07-28T09:39:29.393Z,20.10
2017-07-28T09:41:56.202Z,20.50
2017-07-28T09:44:22.341Z,20.40
2017-07-28T09:46:48.427Z,20.80
2017-07-28T09:49:14.466Z,21.00
2017-07-28T09:51:40.515Z,21.20
2017-07-28T09:54:06.571Z,21.20
2017-07-28T10:01:28.954Z,23.00
2017-07-28T10:13:46.977Z,23.20
2017-07-28T10:16:13.159Z,23.20
2017-07-28T10:18:39.193Z,22.90
2017-07-28T10:21:05.233Z,23.10
2017-07-28T10:23:31.271Z,24.00
2017-07-28T10:25:58.059Z,24.40
2017-07-28T10:28:24.098Z,24.40
2017-07-28T10:30:50.870Z,24.90
2017-07-28T10:33:16.924Z,24.80
2017-07-28T10:35:42.970Z,24.60
2017-07-28T10:38:09.037Z,24.30
2017-07-28T10:40:35.110Z,23.50
2017-07-28T10:43:01.167Z,23.80
2017-07-28T10:45:27.294Z,24.50
2017-07-28T10:47:54.332Z,25.20
2017-07-28T10:50:20.418Z,25.10
2017-07-28T10:52:47.284Z,26.40
2017-07-28T10:55:13.334Z,26.40
2017-07-28T10:57:39.391Z,26.10
2017-07-28T11:00:05.434Z,24.80
2017-07-28T11:02:31.566Z,24.50
2017-07-28T11:04:57.617Z,24.90
2017-07-28T11:07:23.647Z,24.60
2017-07-28T11:09:49.685Z,25.50
2017-07-28T11:12:15.713Z,26.00
2017-07-28T11:14:41.745Z,27.00
2017-07-28T11:17:08.535Z,25.10
2017-07-28T11:19:34.580Z,25.10
2017-07-28T11:22:00.617Z,23.90
2017-07-28T11:24:27.053Z,22.80
2017-07-28T11:26:54.459Z,17.20
2017-07-28T11:29:20.619Z,17.10
2017-07-28T11:31:46.680Z,16.10
2017-07-28T11:34:12.779Z,15.70
2017-07-28T11:36:39.616Z,15.10
2017-07-28T11:39:05.713Z,15.00
2017-07-28T11:41:31.861Z,15.00
2017-07-28T11:43:57.901Z,14.90
2017-07-28T11:46:23.939Z,15.10
2017-07-28T11:48:50.702Z,15.70
2017-07-28T11:51:16.737Z,15.70
2017-07-28T11:53:42.781Z,16.00
2017-07-28T11:56:09.566Z,16.20
2017-07-28T11:58:35.584Z,16.20
2017-07-28T12:01:01.625Z,16.30
2017-07-28T12:03:28.388Z,16.70
2017-07-28T12:05:54.460Z,16.70
2017-07-28T12:08:21.242Z,17.00
2017-07-28T12:10:47.281Z,17.00
2017-07-28T12:13:14.074Z,17.40
2017-07-28T12:15:40.107Z,17.40
2017-07-28T12:18:06.247Z,17.50
2017-07-28T12:20:32.300Z,17.60
2017-07-28T12:25:26.866Z,20.10
2017-07-28T12:27:52.882Z,20.10
2017-07-28T12:30:18.913Z,21.30
2017-07-28T12:32:44.945Z,22.60
2017-07-28T12:35:10.964Z,23.40
2017-07-28T12:37:37.734Z,23.60
2017-07-28T12:40:03.770Z,23.60
2017-07-28T12:42:29.819Z,24.00
2017-07-28T12:44:55.837Z,23.30
2017-07-28T12:47:21.854Z,22.70
2017-07-28T12:49:47.858Z,22.00
2017-07-28T12:52:13.962Z,21.80
2017-07-28T12:54:40.042Z,21.20
2017-07-28T12:57:06.883Z,20.80
2017-07-28T12:59:33.711Z,21.90
2017-07-28T13:02:00.464Z,22.10
2017-07-28T13:04:26.478Z,22.00
2017-07-28T13:06:52.494Z,21.90
2017-07-28T13:09:18.518Z,21.40
2017-07-28T13:11:44.541Z,20.90
2017-07-28T13:14:10.559Z,20.40
2017-07-28T13:16:36.591Z,20.00
2017-07-28T13:19:02.671Z,19.40
2017-07-28T13:21:28.690Z,19.00
2017-07-28T13:23:55.450Z,18.60
2017-07-28T13:26:21.497Z,18.60
2017-07-28T13:28:47.534Z,18.80
2017-07-28T13:31:14.306Z,20.10
2017-07-28T13:33:40.329Z,20.10
2017-07-28T13:36:06.373Z,21.00
2017-07-28T13:46:02.070Z,22.10
2017-07-28T13:48:28.094Z,21.50
2017-07-28T13:50:54.860Z,20.80
2017-07-28T13:53:20.887Z,20.80
2017-07-28T13:55:46.915Z,20.70
2017-07-28T13:58:12.941Z,20.60
2017-07-28T14:00:39.713Z,20.30
2017-07-28T14:03:05.750Z,20.30
2017-07-28T14:05:31.773Z,20.30
2017-07-28T14:07:57.801Z,20.40
2017-07-28T14:10:23.809Z,20.50
2017-07-28T14:12:49.836Z,21.10
2017-07-28T14:15:15.845Z,21.90
2017-07-28T14:22:38.592Z,22.50
2017-07-28T14:25:04.634Z,26.10
2017-07-28T14:27:30.667Z,27.00
2017-07-28T14:29:56.705Z,26.60
2017-07-28T14:32:22.724Z,26.40
2017-07-28T14:34:48.745Z,26.10
2017-07-28T14:37:14.761Z,25.80
2017-07-28T14:39:40.795Z,25.40
2017-07-28T14:42:06.813Z,24.50
2017-07-28T15:14:07.958Z,24.10
2017-07-28T15:16:34.362Z,20.40
2017-07-28T15:19:00.398Z,20.00
2017-07-28T15:21:27.334Z,19.80
2017-07-28T15:23:53.424Z,19.70
2017-07-28T15:26:19.474Z,19.80
2017-07-28T15:28:45.482Z,19.60
2017-07-28T15:31:11.502Z,19.40
2017-07-28T15:33:37.527Z,19.20
2017-07-28T15:36:03.537Z,18.90
2017-07-28T15:38:29.567Z,18.80
2017-07-28T15:40:55.592Z,18.90
2017-07-28T15:43:22.358Z,19.00
2017-07-28T15:45:48.373Z,19.00
2017-07-28T15:48:14.393Z,19.00
2017-07-28T15:50:40.418Z,18.90
2017-07-28T15:53:06.446Z,18.80
2017-07-28T15:55:32.453Z,18.80
2017-07-28T15:57:58.478Z,18.70
2017-07-28T16:00:24.493Z,18.90
2017-07-28T16:02:50.527Z,19.50
2017-07-28T16:05:16.534Z,20.70
2017-07-28T16:07:42.541Z,22.10
2017-07-28T16:10:09.018Z,23.50
2017-07-28T16:12:35.774Z,25.80
2017-07-28T16:15:01.807Z,25.70
2017-07-28T16:17:27.841Z,26.50
2017-07-28T16:19:53.862Z,25.90
2017-07-28T16:22:20.628Z,27.00
2017-07-28T16:27:15.215Z,28.20
2017-07-28T16:29:41.233Z,28.10
2017-07-28T16:32:07.241Z,28.20
2017-07-28T16:34:33.261Z,27.80
2017-07-28T16:36:59.273Z,27.70
2017-07-28T16:39:25.279Z,27.20
2017-07-28T16:54:10.414Z,26.30
2017-07-28T16:56:36.451Z,22.20
2017-07-28T16:59:02.469Z,21.70
2017-07-28T17:01:28.494Z,21.30
2017-07-28T17:03:55.246Z,21.00
2017-07-28T17:06:21.300Z,21.00
2017-07-28T17:08:47.313Z,21.00
2017-07-28T17:11:13.352Z,20.80
2017-07-28T17:13:40.110Z,20.20
2017-07-28T17:16:06.136Z,20.20
2017-07-28T17:18:32.169Z,20.20
2017-07-28T17:20:58.207Z,20.00
2017-07-28T17:23:24.218Z,20.00
2017-07-28T17:25:50.246Z,19.80
2017-07-28T17:28:16.295Z,19.60
2017-07-28T17:30:42.702Z,19.20
2017-07-28T17:33:08.771Z,19.10
2017-07-28T17:35:34.801Z,19.10
2017-07-28T17:38:00.869Z,19.00
2017-07-28T17:40:27.645Z,18.80
2017-07-28T17:42:53.695Z,18.80
2017-07-28T17:45:19.728Z,18.70
2017-07-28T17:47:45.794Z,18.70
2017-07-28T17:50:11.833Z,18.60
2017-07-28T17:52:38.598Z,18.40
2017-07-28T17:55:05.237Z,18.40
2017-07-28T17:57:31.276Z,18.10
2017-07-28T17:59:57.406Z,17.90
2017-07-28T18:02:24.161Z,17.50
2017-07-28T18:04:50.203Z,17.50
2017-07-28T18:07:16.237Z,17.30
2017-07-28T18:09:42.989Z,17.30
2017-07-28T18:12:08.997Z,17.30
2017-07-28T18:14:35.017Z,17.30
2017-07-28T18:17:01.060Z,17.30
2017-07-28T18:19:27.089Z,17.40
2017-07-28T18:21:53.120Z,17.40
2017-07-28T18:24:19.157Z,17.50
2017-07-28T18:26:45.185Z,17.60
2017-07-28T18:29:11.219Z,17.70
2017-07-28T18:31:37.225Z,17.80
2017-07-28T18:34:03.266Z,17.70
2017-07-28T18:36:29.354Z,17.70
2017-07-28T18:38:56.131Z,17.90
2017-07-28T18:41:22.157Z,18.00
2017-07-28T18:43:48.185Z,18.10
2017-07-28T18:46:14.234Z,18.00
2017-07-28T18:48:40.257Z,18.00
2017-07-28T18:51:06.334Z,18.10
2017-07-28T18:53:33.093Z,18.00
2017-07-28T18:55:59.258Z,18.00
2017-07-28T18:58:26.041Z,18.00
2017-07-28T19:00:52.086Z,18.00
2017-07-28T19:03:18.118Z,18.00
2017-07-28T19:05:44.146Z,18.00
2017-07-28T19:08:10.170Z,18.00
2017-07-28T19:10:36.219Z,17.90
2017-07-28T19:13:02.271Z,17.80
2017-07-28T19:15:28.315Z,17.80
2017-07-28T19:17:54.350Z,17.80
2017-07-28T19:20:20.361Z,17.70
2017-07-28T19:22:46.396Z,17.60
2017-07-28T19:25:12.422Z,17.60
2017-07-28T19:27:38.452Z,17.60
2017-07-28T19:30:04.474Z,17.60
2017-07-28T19:32:30.527Z,17.50
2017-07-28T19:34:56.621Z,17.50
2017-07-28T19:37:22.659Z,17.40
2017-07-28T19:39:48.683Z,17.30
2017-07-28T19:42:14.702Z,17.40
2017-07-28T19:44:40.722Z,17.40
2017-07-28T19:47:06.745Z,17.40
2017-07-28T19:49:32.783Z,17.40
2017-07-28T19:51:58.827Z,17.40
2017-07-28T19:54:24.867Z,17.30
2017-07-28T19:56:50.905Z,17.30
2017-07-28T19:59:17.697Z,17.30
2017-07-28T20:01:43.760Z,17.30
2017-07-28T20:04:09.807Z,17.30
2017-07-28T20:06:35.839Z,17.30
2017-07-28T20:09:02.622Z,17.40
2017-07-28T20:11:28.707Z,17.40
2017-07-28T20:13:54.742Z,17.40
2017-07-28T20:16:20.781Z,17.50
2017-07-28T20:18:46.869Z,17.50
2017-07-28T20:21:12.914Z,17.40
2017-07-28T20:23:38.958Z,17.50
2017-07-28T20:26:05.029Z,17.40
2017-07-28T20:28:31.198Z,17.40
2017-07-28T20:30:57.287Z,17.50
2017-07-28T20:33:23.309Z,17.60
2017-07-28T20:35:49.390Z,17.50
2017-07-28T20:38:16.178Z,17.50
2017-07-28T20:40:42.244Z,17.50
2017-07-28T20:43:08.273Z,17.60
2017-07-28T20:45:34.637Z,17.50
2017-07-28T20:48:00.657Z,17.50
2017-07-28T20:50:27.410Z,17.40
2017-07-28T20:52:53.433Z,17.40
2017-07-28T20:55:19.466Z,17.40
2017-07-28T20:57:45.489Z,17.30
2017-07-28T21:00:11.519Z,17.30
2017-07-28T21:02:38.174Z,17.40
2017-07-28T21:05:05.518Z,17.40
2017-07-28T21:07:32.451Z,17.30
2017-07-28T21:09:58.618Z,17.30
2017-07-28T21:12:25.379Z,17.50
2017-07-28T21:14:51.402Z,17.40
2017-07-28T21:17:17.417Z,17.40
2017-07-28T21:19:43.457Z,17.40
2017-07-28T21:22:10.244Z,17.40
2017-07-28T21:24:36.277Z,17.40
2017-07-28T21:27:02.305Z,17.30
2017-07-28T21:29:29.119Z,17.30
2017-07-28T21:31:55.923Z,17.20
2017-07-28T21:34:21.958Z,17.20
2017-07-28T21:36:47.989Z,17.20
2017-07-28T21:39:14.035Z,17.20
2017-07-28T21:41:40.075Z,17.20
2017-07-28T21:44:06.101Z,17.10
2017-07-28T21:46:32.950Z,17.00
2017-07-28T21:48:58.973Z,16.90
2017-07-28T21:51:25.013Z,17.00
2017-07-28T21:53:51.064Z,16.90
2017-07-28T21:56:17.086Z,16.90
2017-07-28T21:58:43.112Z,16.80
2017-07-28T22:01:09.163Z,16.80
2017-07-28T22:03:35.973Z,16.70
2017-07-28T22:06:02.042Z,16.70
2017-07-28T22:08:28.094Z,16.70
2017-07-28T22:10:54.153Z,16.70
2017-07-28T22:13:20.217Z,16.80
2017-07-28T22:15:46.251Z,16.70
2017-07-28T22:18:12.303Z,16.70
2017-07-28T22:20:38.371Z,16.70
2017-07-28T22:23:05.137Z,16.80
2017-07-28T22:25:31.163Z,16.70
2017-07-28T22:27:57.204Z,16.80
2017-07-28T22:30:23.242Z,16.70
2017-07-28T22:32:49.293Z,16.70
2017-07-28T22:35:15.330Z,16.60
2017-07-28T22:37:41.361Z,16.60
2017-07-28T22:40:07.405Z,16.70
2017-07-28T22:42:33.451Z,16.60
2017-07-28T22:44:59.497Z,16.60
2017-07-28T22:47:25.523Z,16.60
2017-07-28T22:49:51.569Z,16.50
2017-07-28T22:52:17.645Z,16.40
2017-07-28T22:54:43.673Z,16.40
2017-07-28T22:57:09.718Z,16.50
2017-07-28T22:59:36.528Z,16.40
2017-07-28T23:02:02.567Z,16.40
2017-07-28T23:04:28.607Z,16.40
2017-07-28T23:06:54.653Z,16.30
2017-07-28T23:09:20.706Z,16.30
2017-07-28T23:11:46.752Z,16.30
2017-07-28T23:14:12.765Z,16.20
2017-07-28T23:16:38.929Z,16.30
2017-07-28T23:19:19.946Z,16.30
2017-07-28T23:21:45.986Z,16.30
2017-07-28T23:24:12.022Z,16.40
2017-07-28T23:26:38.079Z,16.40
2017-07-28T23:29:04.134Z,16.40
2017-07-28T23:31:30.168Z,16.40
2017-07-28T23:33:56.209Z,16.40
2017-07-28T23:36:23.002Z,16.40
2017-07-28T23:38:49.815Z,16.40
2017-07-28T23:41:15.867Z,16.40
2017-07-28T23:43:41.920Z,16.40
2017-07-28T23:46:07.955Z,16.50
2017-07-28T23:48:33.984Z,16.50
2017-07-28T23:51:00.031Z,16.50
2017-07-28T23:53:26.817Z,16.50
2017-07-28T23:55:52.857Z,16.50
2017-07-28T23:58:18.903Z,16.50
